Time;durP1;ratioP1;P1;durP2;ratioP2;P2;SDS_P1;SDS_P2;PMS_P1;PMS_P2;Temp;Humidity;BMP_temperature;BMP_pressure;BME280_temperature;BME280_humidity;BME280_pressure;Samples;Min_cycle;Max_cycle;Signal;HPM_P1;HPM_P2
2022/11/17 00:02:18;;;;;;;5.50;1.30;;;;;;;;;;5011663;28;20684;-80
2022/11/17 00:04:45;;;;;;;6.63;1.27;;;;;;;;;;5017301;28;20228;-79
2022/11/17 00:07:12;;;;;;;6.60;1.90;;;;;;;;;;5028824;28;20280;-79
2022/11/17 00:09:39;;;;;;;7.70;1.77;;;;;;;;;;5011878;28;20247;-80
2022/11/17 00:14:53;;;;;;;6.10;1.40;;;;;;;;;;5012632;28;20208;-80
2022/11/17 00:17:20;;;;;;;3.43;1.10;;;;;;;;;;5022009;28;20306;-79
2022/11/17 00:22:33;;;;;;;5.33;1.73;;;;;;;;;;5023903;28;20683;-79
2022/11/17 00:25:00;;;;;;;4.87;1.30;;;;;;;;;;5012238;28;20233;-80
2022/11/17 00:27:29;;;;;;;7.77;1.63;;;;;;;;;;5012135;28;20232;-80
2022/11/17 00:29:56;;;;;;;5.17;1.30;;;;;;;;;;5012321;28;20331;-79
2022/11/17 00:35:09;;;;;;;6.83;1.50;;;;;;;;;;5024616;28;20730;-79
2022/11/17 00:37:37;;;;;;;6.47;1.70;;;;;;;;;;5030030;28;20775;-80
2022/11/17 00:40:04;;;;;;;7.53;1.60;;;;;;;;;;5027060;28;20228;-79
2022/11/17 00:42:33;;;;;;;4.97;1.20;;;;;;;;;;5025814;28;20308;-80
2022/11/17 00:45:01;;;;;;;6.93;1.67;;;;;;;;;;5032034;28;20283;-80
2022/11/17 00:47:28;;;;;;;9.10;1.60;;;;;;;;;;5032016;28;20228;-80
2022/11/17 00:49:55;;;;;;;4.80;1.17;;;;;;;;;;5031957;28;20232;-80
2022/11/17 00:52:22;;;;;;;6.93;1.20;;;;;;;;;;5024401;28;20284;-80
2022/11/17 00:54:49;;;;;;;6.13;1.50;;;;;;;;;;5028010;28;20239;-80
2022/11/17 00:57:17;;;;;;;7.23;1.40;;;;;;;;;;5031570;28;20255;-80
2022/11/17 00:59:45;;;;;;;7.30;1.50;;;;;;;;;;5023555;28;20233;-80
2022/11/17 01:02:13;;;;;;;5.77;1.57;;;;;;;;;;5011961;28;20285;-80
2022/11/17 01:04:40;;;;;;;6.47;1.33;;;;;;;;;;5012175;28;20288;-80
2022/11/17 01:07:07;;;;;;;6.07;1.53;;;;;;;;;;5011498;28;20289;-80
2022/11/17 01:09:34;;;;;;;7.73;1.70;;;;;;;;;;5011621;28;20323;-80
2022/11/17 01:12:01;;;;;;;6.83;1.20;;;;;;;;;;5022594;28;20211;-80
2022/11/17 01:14:29;;;;;;;9.77;1.70;;;;;;;;;;5028443;28;20386;-80
2022/11/17 01:16:58;;;;;;;6.37;1.80;;;;;;;;;;5013829;28;20335;-80
2022/11/17 01:19:25;;;;;;;8.87;1.90;;;;;;;;;;5011675;28;20239;-80
2022/11/17 01:21:53;;;;;;;11.97;2.03;;;;;;;;;;5025639;28;20243;-79
2022/11/17 01:24:20;;;;;;;12.17;1.80;;;;;;;;;;5018665;28;20296;-80
2022/11/17 01:26:49;;;;;;;7.90;2.60;;;;;;;;;;5033975;28;20287;-80
2022/11/17 01:29:17;;;;;;;10.13;1.90;;;;;;;;;;5034533;28;20220;-80
2022/11/17 01:31:44;;;;;;;8.70;2.03;;;;;;;;;;5035265;28;20196;-80
2022/11/17 01:34:13;;;;;;;10.23;1.40;;;;;;;;;;5034750;28;20228;-80
2022/11/17 01:39:23;;;;;;;13.60;1.90;;;;;;;;;;5019007;28;20198;-79
2022/11/17 01:41:50;;;;;;;11.60;2.10;;;;;;;;;;5035259;28;20204;-79
2022/11/17 01:44:38;;;;;;;13.40;2.30;;;;;;;;;;5018713;28;20232;-80
2022/11/17 01:47:07;;;;;;;8.20;2.00;;;;;;;;;;5014476;28;20193;-80
2022/11/17 01:49:35;;;;;;;10.43;2.20;;;;;;;;;;5014663;28;20292;-79
2022/11/17 01:52:05;;;;;;;11.67;2.47;;;;;;;;;;5019268;28;20283;-80
2022/11/17 01:54:34;;;;;;;9.90;1.90;;;;;;;;;;5034342;28;20232;-79
2022/11/17 01:57:03;;;;;;;12.70;2.07;;;;;;;;;;5033339;28;20307;-79
2022/11/17 01:59:31;;;;;;;10.73;2.30;;;;;;;;;;5034228;28;20283;-80
2022/11/17 02:01:59;;;;;;;13.33;2.60;;;;;;;;;;5033995;28;20744;-80
2022/11/17 02:04:28;;;;;;;13.23;2.33;;;;;;;;;;5015589;28;20653;-79
2022/11/17 02:07:00;;;;;;;11.07;2.00;;;;;;;;;;5016622;28;21589;-80
2022/11/17 02:09:28;;;;;;;13.43;2.27;;;;;;;;;;5029875;28;20292;-80
2022/11/17 02:11:57;;;;;;;11.30;2.50;;;;;;;;;;5033812;28;20283;-80
2022/11/17 02:14:24;;;;;;;15.37;2.57;;;;;;;;;;5034329;28;20228;-80
2022/11/17 02:16:51;;;;;;;14.90;2.57;;;;;;;;;;5034295;28;20259;-79
2022/11/17 02:19:21;;;;;;;13.80;2.80;;;;;;;;;;5034457;28;20744;-79
2022/11/17 02:22:01;;;;;;;14.53;2.30;;;;;;;;;;5033809;28;20235;-79
2022/11/17 02:24:43;;;;;;;18.03;2.93;;;;;;;;;;5016428;28;20243;-80
2022/11/17 02:27:26;;;;;;;14.33;2.83;;;;;;;;;;5022350;28;20197;-80
2022/11/17 02:29:55;;;;;;;21.83;2.90;;;;;;;;;;5013497;28;20265;-79
2022/11/17 02:32:25;;;;;;;14.40;2.83;;;;;;;;;;5013819;28;20201;-79
2022/11/17 02:34:55;;;;;;;17.33;2.50;;;;;;;;;;5013676;28;20236;-80
2022/11/17 02:37:25;;;;;;;16.73;2.50;;;;;;;;;;5014278;28;20316;-79
2022/11/17 02:39:56;;;;;;;17.87;2.67;;;;;;;;;;5013634;28;20292;-80
2022/11/17 02:45:10;;;;;;;13.47;2.63;;;;;;;;;;5012641;28;20212;-79
2022/11/17 02:47:39;;;;;;;17.47;2.80;;;;;;;;;;5013862;28;20296;-79
2022/11/17 02:50:08;;;;;;;14.07;2.50;;;;;;;;;;5013719;28;20223;-80
2022/11/17 02:52:35;;;;;;;16.57;3.40;;;;;;;;;;5013986;28;20610;-80
2022/11/17 02:55:03;;;;;;;14.43;3.33;;;;;;;;;;5013074;28;20247;-80
2022/11/17 02:57:32;;;;;;;13.17;2.80;;;;;;;;;;5013101;28;20663;-80
2022/11/17 03:00:00;;;;;;;16.17;2.73;;;;;;;;;;5012193;28;20202;-79
2022/11/17 03:02:37;;;;;;;19.97;3.50;;;;;;;;;;5003690;28;20205;-80
2022/11/17 03:05:12;;;;;;;20.87;3.40;;;;;;;;;;5013324;28;20209;-80
2022/11/17 03:07:46;;;;;;;16.73;3.00;;;;;;;;;;5013593;28;20200;-79
2022/11/17 03:10:15;;;;;;;17.00;2.97;;;;;;;;;;5027842;28;20277;-79
2022/11/17 03:12:54;;;;;;;17.03;2.60;;;;;;;;;;5030283;28;20291;-79
2022/11/17 03:15:24;;;;;;;15.20;2.60;;;;;;;;;;5013538;28;20243;-80
2022/11/17 03:17:59;;;;;;;17.47;2.33;;;;;;;;;;5013025;28;20343;-79
2022/11/17 03:20:28;;;;;;;13.03;2.00;;;;;;;;;;5015431;28;20591;-79
2022/11/17 03:22:58;;;;;;;19.57;2.80;;;;;;;;;;5025814;28;20221;-80
2022/11/17 03:25:27;;;;;;;13.40;2.30;;;;;;;;;;5012905;28;20289;-79
2022/11/17 03:27:57;;;;;;;15.33;2.33;;;;;;;;;;5012764;28;20669;-79
2022/11/17 03:30:25;;;;;;;16.87;2.43;;;;;;;;;;5012356;28;20240;-79
2022/11/17 03:32:53;;;;;;;14.07;2.07;;;;;;;;;;5013126;28;20205;-79
2022/11/17 03:35:22;;;;;;;13.53;1.90;;;;;;;;;;5017632;28;20224;-80
2022/11/17 03:37:52;;;;;;;15.40;2.23;;;;;;;;;;5012827;28;20225;-79
2022/11/17 03:40:21;;;;;;;11.97;2.13;;;;;;;;;;5013160;28;20303;-80
2022/11/17 03:42:51;;;;;;;14.23;1.90;;;;;;;;;;5012137;28;20717;-79
2022/11/17 03:45:21;;;;;;;12.23;2.30;;;;;;;;;;5012758;28;20201;-80
2022/11/17 03:47:50;;;;;;;7.90;1.60;;;;;;;;;;5012483;28;20228;-80
2022/11/17 03:50:19;;;;;;;9.30;1.60;;;;;;;;;;5013085;28;20247;-79
2022/11/17 03:52:46;;;;;;;10.40;1.70;;;;;;;;;;5012275;28;20247;-80
2022/11/17 03:55:14;;;;;;;8.20;1.20;;;;;;;;;;5028161;28;20228;-80
2022/11/17 03:57:45;;;;;;;5.50;1.40;;;;;;;;;;5012313;28;20727;-80
2022/11/17 04:00:13;;;;;;;6.23;1.13;;;;;;;;;;5026812;28;20283;-80
2022/11/17 04:02:44;;;;;;;7.67;1.10;;;;;;;;;;5011907;28;20301;-79
2022/11/17 04:05:12;;;;;;;9.20;1.97;;;;;;;;;;4993228;28;20209;-80
2022/11/17 04:07:40;;;;;;;6.83;1.63;;;;;;;;;;4992613;28;20296;-80
2022/11/17 04:10:08;;;;;;;10.70;2.23;;;;;;;;;;5006716;28;20280;-80
2022/11/17 04:18:06;;;;;;;12.80;1.70;;;;;;;;;;5016636;28;20258;-79
2022/11/17 04:20:36;;;;;;;10.93;1.90;;;;;;;;;;5014106;28;20289;-80
2022/11/17 04:23:10;;;;;;;9.50;1.57;;;;;;;;;;5017858;28;20200;-79
2022/11/17 04:28:38;;;;;;;7.07;1.20;;;;;;;;;;5012363;28;21078;-80
2022/11/17 04:31:07;;;;;;;13.23;1.43;;;;;;;;;;5028144;28;20236;-80
2022/11/17 04:33:35;;;;;;;8.50;1.77;;;;;;;;;;5026377;28;20641;-79
2022/11/17 04:36:03;;;;;;;7.13;1.43;;;;;;;;;;5024524;28;20291;-79
2022/11/17 04:38:30;;;;;;;9.17;1.67;;;;;;;;;;5028417;28;20304;-79
2022/11/17 04:43:46;;;;;;;10.87;1.90;;;;;;;;;;5032054;28;20203;-79
2022/11/17 04:46:14;;;;;;;8.53;1.70;;;;;;;;;;5031359;28;20686;-80
2022/11/17 04:48:42;;;;;;;7.77;1.53;;;;;;;;;;5031880;28;20204;-79
2022/11/17 04:51:09;;;;;;;6.50;1.40;;;;;;;;;;5028563;28;20227;-80
2022/11/17 04:53:37;;;;;;;8.37;1.47;;;;;;;;;;5024567;28;20284;-80
2022/11/17 04:56:04;;;;;;;7.57;1.30;;;;;;;;;;5024369;28;20291;-80
2022/11/17 04:58:32;;;;;;;9.23;1.47;;;;;;;;;;5035186;28;20220;-80
2022/11/17 05:01:11;;;;;;;11.30;2.07;;;;;;;;;;5032542;28;20239;-79
2022/11/17 05:03:39;;;;;;;14.13;2.10;;;;;;;;;;5015620;28;20676;-78
2022/11/17 05:06:07;;;;;;;11.27;1.33;;;;;;;;;;5015912;28;20248;-78
2022/11/17 05:08:35;;;;;;;10.37;1.43;;;;;;;;;;5023769;28;20229;-79
2022/11/17 05:13:49;;;;;;;12.73;1.43;;;;;;;;;;5027501;28;20204;-79
2022/11/17 05:19:01;;;;;;;11.77;1.70;;;;;;;;;;5018091;28;20750;-79
2022/11/17 05:21:29;;;;;;;15.07;2.03;;;;;;;;;;5032646;28;20313;-79
2022/11/17 05:23:55;;;;;;;9.67;1.67;;;;;;;;;;5035439;28;20228;-79
2022/11/17 05:26:24;;;;;;;14.10;2.07;;;;;;;;;;5032354;28;20616;-79
2022/11/17 05:28:51;;;;;;;12.40;1.60;;;;;;;;;;5014769;28;20259;-79
2022/11/17 05:31:19;;;;;;;11.43;2.50;;;;;;;;;;5023448;28;20260;-79
2022/11/17 05:33:46;;;;;;;12.13;1.70;;;;;;;;;;5017014;28;20292;-78
2022/11/17 05:36:14;;;;;;;11.13;2.13;;;;;;;;;;5033554;28;20200;-78
2022/11/17 05:38:42;;;;;;;11.80;2.17;;;;;;;;;;5034579;28;20263;-79
2022/11/17 05:41:10;;;;;;;15.17;2.10;;;;;;;;;;5014720;28;20241;-79
2022/11/17 05:43:37;;;;;;;9.33;1.97;;;;;;;;;;5014763;28;20721;-79
2022/11/17 05:46:04;;;;;;;11.83;2.43;;;;;;;;;;5019807;28;20625;-79
2022/11/17 05:48:32;;;;;;;16.17;2.50;;;;;;;;;;5034747;28;20228;-78
2022/11/17 05:51:00;;;;;;;16.20;2.13;;;;;;;;;;5031666;28;20212;-79
2022/11/17 05:53:28;;;;;;;16.53;2.40;;;;;;;;;;5028863;28;20728;-79
2022/11/17 05:56:08;;;;;;;14.57;2.53;;;;;;;;;;5024991;28;20271;-78
2022/11/17 05:58:35;;;;;;;18.97;2.97;;;;;;;;;;5014730;28;20669;-78
2022/11/17 06:01:03;;;;;;;14.43;2.70;;;;;;;;;;5014224;28;21028;-78
2022/11/17 06:03:33;;;;;;;20.13;2.40;;;;;;;;;;5020283;28;20291;-77
2022/11/17 06:06:00;;;;;;;15.43;3.13;;;;;;;;;;5029921;28;20692;-77
2022/11/17 06:08:29;;;;;;;16.70;2.67;;;;;;;;;;5014695;28;20197;-81
2022/11/17 06:10:56;;;;;;;17.77;2.87;;;;;;;;;;5014881;28;20633;-81
2022/11/17 06:13:27;;;;;;;17.00;3.00;;;;;;;;;;5033086;28;20291;-81
2022/11/17 06:15:55;;;;;;;12.93;2.97;;;;;;;;;;5025984;28;20256;-82
2022/11/17 06:18:26;;;;;;;19.03;2.50;;;;;;;;;;5020902;28;20252;-83
2022/11/17 06:20:54;;;;;;;13.50;2.50;;;;;;;;;;5017777;28;20240;-83
2022/11/17 06:23:23;;;;;;;20.00;3.20;;;;;;;;;;5014929;28;20232;-80
2022/11/17 06:25:50;;;;;;;16.80;2.53;;;;;;;;;;5014589;28;20344;-81
2022/11/17 06:28:18;;;;;;;14.07;3.07;;;;;;;;;;5014184;28;20275;-81
2022/11/17 06:30:47;;;;;;;16.43;2.97;;;;;;;;;;5013867;28;20700;-80
2022/11/17 06:33:16;;;;;;;17.90;2.90;;;;;;;;;;5014273;28;20201;-81
2022/11/17 06:35:44;;;;;;;20.00;2.80;;;;;;;;;;5022045;28;20763;-82
2022/11/17 06:38:11;;;;;;;17.73;3.23;;;;;;;;;;5031330;28;20282;-82
2022/11/17 06:40:38;;;;;;;17.53;3.57;;;;;;;;;;5016912;28;20282;-82
2022/11/17 06:43:09;;;;;;;17.20;2.77;;;;;;;;;;5027156;28;20284;-82
2022/11/17 06:45:37;;;;;;;12.97;2.60;;;;;;;;;;5032872;28;20200;-82
2022/11/17 06:48:06;;;;;;;11.57;2.30;;;;;;;;;;5033654;28;20236;-82
2022/11/17 06:50:34;;;;;;;13.43;2.10;;;;;;;;;;5016550;28;20662;-82
2022/11/17 06:53:02;;;;;;;14.07;1.80;;;;;;;;;;5013835;28;20309;-83
2022/11/17 06:55:29;;;;;;;12.00;1.57;;;;;;;;;;5026674;28;20201;-82
2022/11/17 06:58:00;;;;;;;10.07;1.80;;;;;;;;;;5021728;28;20309;-82
2022/11/17 07:00:27;;;;;;;7.57;1.30;;;;;;;;;;5031950;28;20211;-82
2022/11/17 07:02:59;;;;;;;7.80;1.27;;;;;;;;;;5009746;28;20201;-82
2022/11/17 07:05:28;;;;;;;10.67;1.73;;;;;;;;;;5013681;28;20236;-82
2022/11/17 07:07:58;;;;;;;9.63;1.60;;;;;;;;;;5009433;28;20290;-81
2022/11/17 07:10:25;;;;;;;9.50;1.70;;;;;;;;;;5032278;28;20236;-83
2022/11/17 07:12:52;;;;;;;9.00;1.47;;;;;;;;;;5021261;28;20237;-83
2022/11/17 07:15:20;;;;;;;7.07;1.17;;;;;;;;;;5013456;28;20680;-83
2022/11/17 07:17:47;;;;;;;7.97;1.40;;;;;;;;;;4995424;28;20257;-83
2022/11/17 07:20:15;;;;;;;7.77;1.33;;;;;;;;;;5026607;28;20228;-83
2022/11/17 07:22:43;;;;;;;11.73;2.07;;;;;;;;;;5032668;28;20246;-83
2022/11/17 07:25:11;;;;;;;4.90;1.33;;;;;;;;;;5032497;28;20206;-83
2022/11/17 07:27:38;;;;;;;7.57;1.53;;;;;;;;;;5033185;28;20254;-84
2022/11/17 07:30:07;;;;;;;9.80;1.40;;;;;;;;;;5031823;28;20311;-83
2022/11/17 07:32:35;;;;;;;4.17;1.30;;;;;;;;;;5033310;28;20580;-83
2022/11/17 07:35:04;;;;;;;10.50;1.57;;;;;;;;;;5027107;28;20224;-83
2022/11/17 07:37:33;;;;;;;4.87;1.00;;;;;;;;;;5032209;28;20254;-80
2022/11/17 07:40:01;;;;;;;7.97;1.13;;;;;;;;;;5032173;28;20263;-79
2022/11/17 07:42:28;;;;;;;7.90;1.03;;;;;;;;;;5032838;28;20287;-79
2022/11/17 07:44:57;;;;;;;6.33;1.20;;;;;;;;;;5032455;28;20236;-80
2022/11/17 07:47:24;;;;;;;5.70;1.10;;;;;;;;;;5026328;28;20239;-80
2022/11/17 07:49:51;;;;;;;5.23;1.13;;;;;;;;;;5012541;28;20240;-79
2022/11/17 07:52:18;;;;;;;6.27;1.30;;;;;;;;;;5019573;28;20283;-79
2022/11/17 07:54:46;;;;;;;9.13;1.60;;;;;;;;;;5032550;28;20266;-78
2022/11/17 07:57:15;;;;;;;9.20;1.00;;;;;;;;;;5032506;28;20286;-78
2022/11/17 07:59:42;;;;;;;8.40;1.93;;;;;;;;;;5032983;28;20314;-79
2022/11/17 08:02:09;;;;;;;6.77;1.17;;;;;;;;;;5026315;28;20288;-80
2022/11/17 08:04:37;;;;;;;6.97;1.53;;;;;;;;;;5013083;28;20284;-80
2022/11/17 08:07:04;;;;;;;5.13;1.40;;;;;;;;;;5012589;28;20204;-80
2022/11/17 08:09:31;;;;;;;6.57;1.40;;;;;;;;;;5014903;28;20225;-80
2022/11/17 08:12:01;;;;;;;6.13;1.20;;;;;;;;;;5026990;28;20239;-79
2022/11/17 08:14:30;;;;;;;8.23;1.30;;;;;;;;;;5024305;28;20585;-79
2022/11/17 08:16:59;;;;;;;4.97;1.20;;;;;;;;;;5027249;28;20788;-79
2022/11/17 08:19:26;;;;;;;7.22;1.40;;;;;;;;;;5022112;28;20228;-79
2022/11/17 08:21:54;;;;;;;6.78;1.48;;;;;;;;;;5032398;28;20278;-82
2022/11/17 08:24:21;;;;;;;9.00;1.95;;;;;;;;;;5031392;28;20238;-81
2022/11/17 08:26:48;;;;;;;5.13;1.42;;;;;;;;;;5012550;28;20303;-82
2022/11/17 08:29:16;;;;;;;7.50;1.65;;;;;;;;;;5012640;28;20251;-81
2022/11/17 08:31:45;;;;;;;6.32;2.20;;;;;;;;;;5016449;28;20917;-81
2022/11/17 08:34:12;;;;;;;7.90;2.55;;;;;;;;;;5016244;28;20205;-81
2022/11/17 08:36:40;;;;;;;6.63;1.77;;;;;;;;;;5016513;28;20236;-82
2022/11/17 08:39:07;;;;;;;6.63;2.05;;;;;;;;;;5015853;28;20229;-81
2022/11/17 08:41:34;;;;;;;6.65;1.90;;;;;;;;;;5033113;28;20227;-81
2022/11/17 08:44:01;;;;;;;5.20;2.17;;;;;;;;;;5035812;28;20266;-81
2022/11/17 08:46:28;;;;;;;7.35;2.15;;;;;;;;;;5019560;28;20711;-81
2022/11/17 08:48:57;;;;;;;8.23;2.03;;;;;;;;;;5016137;28;20229;-81
2022/11/17 08:51:26;;;;;;;7.80;2.10;;;;;;;;;;5015907;28;20201;-81
2022/11/17 08:53:53;;;;;;;11.07;2.55;;;;;;;;;;5016264;28;20248;-81
2022/11/17 08:56:20;;;;;;;9.88;2.92;;;;;;;;;;5015977;28;20236;-81
2022/11/17 08:58:47;;;;;;;5.40;2.00;;;;;;;;;;5015828;28;20264;-80
2022/11/17 09:01:16;;;;;;;9.02;2.05;;;;;;;;;;5030077;28;20239;-80
2022/11/17 09:03:44;;;;;;;9.93;1.95;;;;;;;;;;5016847;28;20291;-81
2022/11/17 09:06:13;;;;;;;9.80;2.28;;;;;;;;;;5033494;28;20203;-80
2022/11/17 09:08:40;;;;;;;6.85;2.08;;;;;;;;;;5035527;28;20651;-80
2022/11/17 09:11:08;;;;;;;6.75;2.38;;;;;;;;;;5027314;28;20231;-81
2022/11/17 09:13:35;;;;;;;6.70;2.08;;;;;;;;;;5033758;28;20641;-80
2022/11/17 09:16:03;;;;;;;8.55;2.40;;;;;;;;;;5015548;28;20288;-80
2022/11/17 09:18:30;;;;;;;7.55;2.17;;;;;;;;;;5015536;28;20312;-80
2022/11/17 09:21:01;;;;;;;7.63;2.25;;;;;;;;;;5025157;28;20196;-80
2022/11/17 09:23:31;;;;;;;12.70;2.40;;;;;;;;;;5035018;28;20615;-80
2022/11/17 09:25:58;;;;;;;9.10;2.65;;;;;;;;;;5022628;28;20228;-80
2022/11/17 09:28:25;;;;;;;11.52;2.33;;;;;;;;;;5015466;28;20232;-80
2022/11/17 09:30:53;;;;;;;6.18;1.65;;;;;;;;;;5020600;28;20222;-80
2022/11/17 09:33:20;;;;;;;9.98;2.50;;;;;;;;;;5035327;28;20719;-80
2022/11/17 09:35:48;;;;;;;10.60;2.60;;;;;;;;;;5032675;28;20240;-80
2022/11/17 09:38:16;;;;;;;8.43;1.98;;;;;;;;;;5015142;28;20247;-80
2022/11/17 09:40:44;;;;;;;7.38;1.52;;;;;;;;;;5022366;28;20228;-80
2022/11/17 09:43:27;;;;;;;10.50;2.20;;;;;;;;;;5034328;28;20262;-80
2022/11/17 09:45:57;;;;;;;11.60;2.20;;;;;;;;;;5035147;28;20257;-80
2022/11/17 09:48:31;;;;;;;13.40;2.70;;;;;;;;;;5035043;28;20684;-80
2022/11/17 09:50:58;;;;;;;8.80;1.95;;;;;;;;;;5034446;28;20291;-80
2022/11/17 09:53:27;;;;;;;8.95;2.08;;;;;;;;;;5034661;28;20228;-80
2022/11/17 09:55:58;;;;;;;8.82;2.10;;;;;;;;;;5034559;28;20287;-80
2022/11/17 09:58:30;;;;;;;15.32;2.28;;;;;;;;;;5034600;28;20236;-80
2022/11/17 10:00:58;;;;;;;13.07;2.25;;;;;;;;;;5027201;28;20201;-80
2022/11/17 10:03:27;;;;;;;13.27;2.85;;;;;;;;;;4998971;28;20244;-80
2022/11/17 10:05:55;;;;;;;8.63;2.25;;;;;;;;;;4994941;28;20205;-80
2022/11/17 10:08:28;;;;;;;9.52;2.53;;;;;;;;;;4995430;28;20228;-80
2022/11/17 10:10:56;;;;;;;9.23;1.98;;;;;;;;;;4994595;28;20289;-80
2022/11/17 10:13:25;;;;;;;8.80;1.90;;;;;;;;;;4995195;28;20289;-80
2022/11/17 10:15:55;;;;;;;8.88;2.00;;;;;;;;;;4994700;28;20292;-79
2022/11/17 10:18:22;;;;;;;10.52;2.53;;;;;;;;;;4994611;28;20206;-80
2022/11/17 10:20:49;;;;;;;10.85;2.35;;;;;;;;;;4994562;28;20225;-79
2022/11/17 10:23:18;;;;;;;9.63;2.10;;;;;;;;;;4994863;28;20205;-80
2022/11/17 10:25:46;;;;;;;9.02;1.80;;;;;;;;;;4994345;28;20202;-79
2022/11/17 10:28:28;;;;;;;8.52;1.70;;;;;;;;;;4994603;28;20204;-79
2022/11/17 10:30:58;;;;;;;9.95;2.03;;;;;;;;;;5001177;28;20318;-79
2022/11/17 10:33:36;;;;;;;7.70;1.67;;;;;;;;;;5033627;28;20298;-79
2022/11/17 10:36:05;;;;;;;11.05;1.95;;;;;;;;;;5033724;28;20247;-79
2022/11/17 10:38:33;;;;;;;7.97;1.60;;;;;;;;;;5033676;28;20232;-79
2022/11/17 10:41:02;;;;;;;8.82;1.77;;;;;;;;;;5033865;28;20228;-79
2022/11/17 10:43:33;;;;;;;9.80;2.10;;;;;;;;;;5034138;28;20223;-79
2022/11/17 10:46:02;;;;;;;9.73;1.55;;;;;;;;;;5033033;28;20283;-79
2022/11/17 10:48:30;;;;;;;8.40;2.08;;;;;;;;;;5013921;28;20644;-80
2022/11/17 10:50:58;;;;;;;13.95;2.30;;;;;;;;;;5013479;28;20205;-80
2022/11/17 10:53:30;;;;;;;8.18;2.03;;;;;;;;;;5013449;28;20233;-79
2022/11/17 10:56:00;;;;;;;14.10;2.42;;;;;;;;;;5013582;28;20287;-79
2022/11/17 10:58:28;;;;;;;11.38;1.85;;;;;;;;;;5014018;28;20617;-79
2022/11/17 11:00:58;;;;;;;12.50;2.20;;;;;;;;;;5013743;28;20271;-79
2022/11/17 11:03:27;;;;;;;9.38;1.73;;;;;;;;;;5013351;28;20230;-79
2022/11/17 11:05:58;;;;;;;10.65;1.73;;;;;;;;;;5022368;28;20284;-79
2022/11/17 11:08:27;;;;;;;10.68;2.13;;;;;;;;;;5033473;28;20284;-79
2022/11/17 11:10:56;;;;;;;9.80;1.90;;;;;;;;;;5032638;28;20240;-79
2022/11/17 11:13:28;;;;;;;9.52;2.08;;;;;;;;;;5033146;28;20291;-79
2022/11/17 11:15:57;;;;;;;8.40;1.58;;;;;;;;;;5032939;28;20295;-79
2022/11/17 11:18:24;;;;;;;7.07;1.67;;;;;;;;;;5033042;28;20287;-80
2022/11/17 11:20:58;;;;;;;8.52;1.95;;;;;;;;;;5023820;28;20303;-79
2022/11/17 11:23:29;;;;;;;7.82;1.70;;;;;;;;;;5013621;28;20212;-80
2022/11/17 11:26:02;;;;;;;7.60;1.55;;;;;;;;;;5020367;28;20291;-80
2022/11/17 11:28:38;;;;;;;8.02;1.27;;;;;;;;;;5033214;28;20200;-79
2022/11/17 11:31:12;;;;;;;7.20;1.52;;;;;;;;;;5032243;28;20297;-79
2022/11/17 11:33:42;;;;;;;5.85;1.05;;;;;;;;;;5033183;28;20208;-79
2022/11/17 11:36:19;;;;;;;6.70;1.20;;;;;;;;;;5032251;28;20283;-80
2022/11/17 11:38:52;;;;;;;4.05;1.17;;;;;;;;;;5032683;28;20638;-79
2022/11/17 11:41:28;;;;;;;7.20;1.35;;;;;;;;;;5032624;28;20242;-80
2022/11/17 11:44:03;;;;;;;4.30;1.15;;;;;;;;;;5013039;28;20205;-80
2022/11/17 11:46:36;;;;;;;5.97;1.27;;;;;;;;;;5019444;28;20218;-80
2022/11/17 11:49:07;;;;;;;4.45;1.15;;;;;;;;;;5032586;28;20239;-80
2022/11/17 11:51:37;;;;;;;6.13;1.30;;;;;;;;;;5032683;28;20232;-79
2022/11/17 11:54:11;;;;;;;5.80;1.55;;;;;;;;;;5032710;28;20200;-79
2022/11/17 11:56:39;;;;;;;9.07;1.67;;;;;;;;;;5033047;28;20658;-80
2022/11/17 11:59:08;;;;;;;6.05;1.20;;;;;;;;;;5032325;28;20378;-80
2022/11/17 12:01:44;;;;;;;6.75;1.50;;;;;;;;;;5030648;28;20287;-79
2022/11/17 12:04:21;;;;;;;5.63;1.10;;;;;;;;;;5011858;28;20208;-80
2022/11/17 12:06:53;;;;;;;5.88;1.80;;;;;;;;;;5014066;28;20235;-80
2022/11/17 12:09:45;;;;;;;5.00;1.33;;;;;;;;;;5012513;28;20201;-79
2022/11/17 12:12:15;;;;;;;6.07;1.70;;;;;;;;;;5012646;28;20232;-79
2022/11/17 12:15:02;;;;;;;4.03;1.17;;;;;;;;;;5012552;28;20232;-79
2022/11/17 12:17:31;;;;;;;8.48;1.90;;;;;;;;;;5012163;28;20331;-80
2022/11/17 12:20:01;;;;;;;5.95;1.42;;;;;;;;;;5012386;28;20264;-79
2022/11/17 12:22:51;;;;;;;9.05;1.63;;;;;;;;;;5022160;28;20633;-80
2022/11/17 12:25:19;;;;;;;7.40;1.13;;;;;;;;;;5031912;28;20642;-79
2022/11/17 12:27:48;;;;;;;7.82;1.83;;;;;;;;;;5032177;28;20288;-79
2022/11/17 12:30:35;;;;;;;6.38;1.38;;;;;;;;;;5031646;28;20278;-80
2022/11/17 12:33:04;;;;;;;5.68;1.30;;;;;;;;;;5032577;28;20203;-80
2022/11/17 12:35:32;;;;;;;5.15;1.30;;;;;;;;;;5031838;28;20208;-79
2022/11/17 12:38:23;;;;;;;4.00;1.23;;;;;;;;;;5018413;28;20259;-79
2022/11/17 12:40:51;;;;;;;5.22;1.10;;;;;;;;;;4993150;28;20776;-80
2022/11/17 12:43:23;;;;;;;4.82;1.27;;;;;;;;;;5012141;28;20271;-80
2022/11/17 12:46:08;;;;;;;6.10;1.10;;;;;;;;;;5012390;28;20853;-80
2022/11/17 12:48:37;;;;;;;6.95;1.25;;;;;;;;;;5011760;28;20232;-80
2022/11/17 12:51:10;;;;;;;4.72;1.80;;;;;;;;;;5012572;28;20619;-79
2022/11/17 12:53:44;;;;;;;3.75;0.90;;;;;;;;;;5024300;28;20246;-80
2022/11/17 12:56:26;;;;;;;7.25;1.25;;;;;;;;;;5032097;28;20668;-80
2022/11/17 12:58:59;;;;;;;5.50;0.90;;;;;;;;;;5030197;28;20636;-79
2022/11/17 13:01:32;;;;;;;4.45;1.10;;;;;;;;;;5031623;28;20224;-79
2022/11/17 13:04:05;;;;;;;6.88;1.40;;;;;;;;;;4992930;28;20241;-80
2022/11/17 13:06:32;;;;;;;8.73;1.48;;;;;;;;;;4992355;28;20213;-80
2022/11/17 13:09:00;;;;;;;4.53;0.90;;;;;;;;;;5016348;28;20233;-81
2022/11/17 13:11:28;;;;;;;7.88;1.70;;;;;;;;;;5012203;28;20229;-79
2022/11/17 13:14:08;;;;;;;6.40;1.80;;;;;;;;;;5011921;28;20228;-80
2022/11/17 13:16:36;;;;;;;7.55;1.52;;;;;;;;;;5014093;28;20668;-79
2022/11/17 13:19:05;;;;;;;5.18;1.45;;;;;;;;;;5015477;28;20208;-79
2022/11/17 13:21:33;;;;;;;8.68;1.58;;;;;;;;;;5015402;28;20601;-79
2022/11/17 13:24:00;;;;;;;5.85;1.52;;;;;;;;;;5016306;28;20284;-79
2022/11/17 13:26:30;;;;;;;6.90;1.30;;;;;;;;;;5033560;28;20288;-79
2022/11/17 13:29:05;;;;;;;7.85;1.58;;;;;;;;;;5034740;28;20223;-79
2022/11/17 13:31:32;;;;;;;8.23;1.20;;;;;;;;;;5034762;28;20272;-80
2022/11/17 13:34:02;;;;;;;7.22;1.40;;;;;;;;;;5034932;28;20684;-80
2022/11/17 13:36:31;;;;;;;8.82;1.50;;;;;;;;;;5035348;28;20283;-79
2022/11/17 13:38:59;;;;;;;5.03;1.20;;;;;;;;;;5026873;28;20621;-79
2022/11/17 13:41:27;;;;;;;9.75;1.55;;;;;;;;;;5014826;28;20337;-79
2022/11/17 13:43:55;;;;;;;6.32;1.63;;;;;;;;;;5015232;28;20307;-79
2022/11/17 13:46:22;;;;;;;7.95;1.80;;;;;;;;;;5015480;28;20347;-79
2022/11/17 13:48:50;;;;;;;9.68;1.60;;;;;;;;;;5014650;28;20674;-79
2022/11/17 13:51:27;;;;;;;8.40;1.70;;;;;;;;;;5014961;28;20233;-79
2022/11/17 13:53:57;;;;;;;9.50;1.75;;;;;;;;;;5014777;28;20246;-79
2022/11/17 13:56:25;;;;;;;5.57;1.45;;;;;;;;;;5015000;28;20287;-79
2022/11/17 13:58:53;;;;;;;7.38;1.58;;;;;;;;;;5014755;28;20629;-79
2022/11/17 14:01:25;;;;;;;7.45;1.95;;;;;;;;;;5014855;28;20834;-79
2022/11/17 14:03:53;;;;;;;5.67;1.80;;;;;;;;;;5024194;28;20208;-79
2022/11/17 14:06:20;;;;;;;9.18;2.35;;;;;;;;;;5034946;28;20228;-79
2022/11/17 14:11:42;;;;;;;8.47;1.70;;;;;;;;;;5130474;27;20582;-79
2022/11/17 14:14:12;;;;;;;7.18;1.50;;;;;;;;;;5129879;27;20250;-79
2022/11/17 14:16:40;;;;;;;6.80;1.50;;;;;;;;;;5131111;28;20283;-79
2022/11/17 14:19:22;;;;;;;9.17;2.70;;;;;;;;;;5130914;27;20193;-79
2022/11/17 14:21:58;;;;;;;7.23;1.90;;;;;;;;;;5129831;28;20315;-79
2022/11/17 14:24:25;;;;;;;7.00;1.60;;;;;;;;;;5125197;28;20193;-79
2022/11/17 14:26:54;;;;;;;6.57;1.47;;;;;;;;;;5124998;28;20280;-79
2022/11/17 14:29:21;;;;;;;8.23;1.60;;;;;;;;;;5130558;28;20270;-79
2022/11/17 14:31:50;;;;;;;8.43;1.20;;;;;;;;;;5130708;27;20288;-79
2022/11/17 14:34:17;;;;;;;4.73;1.00;;;;;;;;;;5130726;27;20284;-79
2022/11/17 14:36:45;;;;;;;5.13;1.20;;;;;;;;;;5130763;27;20197;-79
2022/11/17 14:39:15;;;;;;;6.23;0.83;;;;;;;;;;5130149;27;20205;-79
2022/11/17 14:41:43;;;;;;;4.47;0.90;;;;;;;;;;5108995;27;20277;-79
2022/11/17 14:44:12;;;;;;;4.47;1.00;;;;;;;;;;5127737;28;20201;-79
2022/11/17 14:46:39;;;;;;;3.73;0.70;;;;;;;;;;5130230;27;20231;-79
2022/11/17 14:49:07;;;;;;;3.07;0.83;;;;;;;;;;5129944;27;20715;-79
2022/11/17 14:51:34;;;;;;;2.83;0.63;;;;;;;;;;5130277;27;20358;-79
2022/11/17 14:54:02;;;;;;;3.50;0.70;;;;;;;;;;5116363;27;20237;-79
2022/11/17 14:56:29;;;;;;;6.03;1.13;;;;;;;;;;5109668;28;20198;-79
2022/11/17 14:58:57;;;;;;;4.03;0.80;;;;;;;;;;5109717;28;20237;-79
2022/11/17 15:01:29;;;;;;;3.40;1.10;;;;;;;;;;5109169;28;20280;-79
2022/11/17 15:03:57;;;;;;;4.10;0.87;;;;;;;;;;5109578;28;20198;-79
2022/11/17 15:06:24;;;;;;;2.03;0.70;;;;;;;;;;5109374;28;20301;-79
2022/11/17 15:08:55;;;;;;;4.47;1.07;;;;;;;;;;5109480;28;20237;-79
2022/11/17 15:11:23;;;;;;;4.33;1.23;;;;;;;;;;5113295;28;20585;-79
2022/11/17 15:13:50;;;;;;;2.50;1.00;;;;;;;;;;5109491;28;20611;-79
2022/11/17 15:16:18;;;;;;;4.60;0.90;;;;;;;;;;5093039;28;20226;-79
2022/11/17 15:18:47;;;;;;;4.53;1.20;;;;;;;;;;5089166;28;20199;-79
2022/11/17 15:21:15;;;;;;;3.77;0.97;;;;;;;;;;5085096;28;20282;-79
2022/11/17 15:23:43;;;;;;;3.03;1.10;;;;;;;;;;5075184;28;20287;-79
2022/11/17 15:26:12;;;;;;;6.83;1.93;;;;;;;;;;5082520;28;20227;-79